createdAt,value
2023-01-29T00:04:24.971Z,3.30
2023-01-29T00:09:32.766Z,3.30
2023-01-29T00:14:40.302Z,3.31
2023-01-29T00:19:47.764Z,3.31
2023-01-29T00:24:54.881Z,3.31
2023-01-29T00:30:13.240Z,3.30
2023-01-29T00:35:20.693Z,3.33
2023-01-29T00:40:28.311Z,3.31
2023-01-29T00:45:37.128Z,3.30
2023-01-29T00:50:44.304Z,3.30
2023-01-29T00:55:51.422Z,3.29
2023-01-29T01:00:58.924Z,3.28
2023-01-29T01:06:10.004Z,3.29
2023-01-29T01:11:17.062Z,3.29
2023-01-29T01:16:27.453Z,3.28
2023-01-29T01:21:34.912Z,3.29
2023-01-29T01:26:42.143Z,3.29
2023-01-29T01:31:49.293Z,3.28
2023-01-29T01:36:56.832Z,3.28
2023-01-29T01:42:04.025Z,3.29
2023-01-29T01:47:11.485Z,3.27
2023-01-29T01:52:19.511Z,3.28
2023-01-29T01:57:27.512Z,3.27
2023-01-29T02:02:52.089Z,3.28
2023-01-29T02:08:17.508Z,3.27
2023-01-29T02:13:25.133Z,3.28
2023-01-29T02:18:38.441Z,3.27
2023-01-29T02:24:01.017Z,3.27
2023-01-29T02:29:25.618Z,3.28
2023-01-29T02:34:54.832Z,3.30
2023-01-29T02:40:10.636Z,3.28
2023-01-29T02:45:20.193Z,3.28
2023-01-29T02:50:31.481Z,3.27
2023-01-29T02:55:43.230Z,3.27
2023-01-29T03:00:51.118Z,3.27
2023-01-29T03:06:00.344Z,3.26
2023-01-29T03:11:08.675Z,3.25
2023-01-29T03:16:20.849Z,3.25
2023-01-29T03:21:48.891Z,3.25
2023-01-29T03:27:13.392Z,3.26
2023-01-29T03:32:22.050Z,3.24
2023-01-29T03:37:33.393Z,3.24
2023-01-29T03:42:46.232Z,3.24
2023-01-29T03:47:56.189Z,3.25
2023-01-29T03:53:07.314Z,3.24
2023-01-29T03:58:22.594Z,3.25
2023-01-29T04:03:36.369Z,3.25
2023-01-29T04:08:48.781Z,3.24
2023-01-29T04:13:56.003Z,3.24
2023-01-29T04:19:03.270Z,3.23
2023-01-29T04:24:13.077Z,3.22
2023-01-29T04:29:30.163Z,3.22
2023-01-29T04:34:44.161Z,3.24
2023-01-29T04:39:54.434Z,3.24
2023-01-29T04:45:07.130Z,3.23
2023-01-29T04:50:18.616Z,3.23
2023-01-29T04:55:31.273Z,3.23
2023-01-29T05:00:41.449Z,3.22
2023-01-29T05:05:49.961Z,3.22
2023-01-29T05:10:58.977Z,3.22
2023-01-29T05:16:08.101Z,3.22
2023-01-29T05:21:15.282Z,3.21
2023-01-29T05:26:40.389Z,3.21
2023-01-29T05:31:47.785Z,3.21
2023-01-29T05:36:55.229Z,3.21
2023-01-29T05:42:02.301Z,3.21
2023-01-29T05:47:09.843Z,3.20
2023-01-29T05:52:16.902Z,3.20
2023-01-29T05:57:24.124Z,3.20
2023-01-29T06:02:33.083Z,3.20
2023-01-29T06:07:42.285Z,3.20
2023-01-29T06:12:51.273Z,3.20
2023-01-29T06:17:58.895Z,3.20
2023-01-29T06:23:05.926Z,3.20
2023-01-29T06:28:13.121Z,3.19
2023-01-29T06:33:20.223Z,3.19
2023-01-29T06:38:27.796Z,3.19
2023-01-29T06:43:35.248Z,3.18
2023-01-29T06:48:42.432Z,3.19
2023-01-29T06:53:49.482Z,3.19
2023-01-29T06:58:56.602Z,3.19
2023-01-29T07:04:04.091Z,3.19
2023-01-29T07:09:13.381Z,3.19
2023-01-29T07:14:20.519Z,3.18
2023-01-29T07:19:27.581Z,3.18
2023-01-29T07:24:35.110Z,3.19
2023-01-29T07:29:42.548Z,3.17
2023-01-29T07:34:49.971Z,3.18
2023-01-29T07:39:57.461Z,3.18
2023-01-29T07:45:04.772Z,3.17
2023-01-29T07:50:13.181Z,3.18
2023-01-29T07:55:21.064Z,3.20
2023-01-29T08:00:28.963Z,3.21
2023-01-29T08:05:36.450Z,3.21
2023-01-29T08:10:43.977Z,3.20
2023-01-29T08:15:51.223Z,3.20
2023-01-29T08:21:02.834Z,3.19
2023-01-29T08:26:10.314Z,3.19
2023-01-29T08:31:18.547Z,3.19
2023-01-29T08:36:26.254Z,3.18
2023-01-29T08:41:33.982Z,3.20
2023-01-29T08:46:41.806Z,3.20
2023-01-29T08:51:49.041Z,3.20
2023-01-29T08:56:57.117Z,3.19
2023-01-29T09:02:05.158Z,3.20
2023-01-29T09:07:12.502Z,3.20
2023-01-29T09:12:20.345Z,3.21
2023-01-29T09:17:27.633Z,3.24
2023-01-29T09:22:35.141Z,3.27
2023-01-29T09:27:42.465Z,3.28
2023-01-29T09:32:54.388Z,3.27
2023-01-29T09:38:02.699Z,3.25
2023-01-29T09:43:14.925Z,3.25
2023-01-29T09:48:24.292Z,3.23
2023-01-29T09:53:34.870Z,3.23
2023-01-29T09:58:42.930Z,3.23
2023-01-29T10:04:05.534Z,3.22
2023-01-29T10:09:26.064Z,3.24
2023-01-29T10:14:38.451Z,3.24
2023-01-29T10:19:59.029Z,3.23
2023-01-29T10:25:07.551Z,3.24
2023-01-29T10:30:23.221Z,3.22
2023-01-29T10:35:33.055Z,3.23
2023-01-29T10:40:45.221Z,3.23
2023-01-29T10:45:58.650Z,3.22
2023-01-29T10:51:15.000Z,3.22
2023-01-29T10:56:32.035Z,3.24
2023-01-29T11:01:39.666Z,3.26
2023-01-29T11:06:47.451Z,3.27
2023-01-29T11:11:56.621Z,3.26
2023-01-29T11:17:04.350Z,3.25
2023-01-29T11:22:15.626Z,3.26
2023-01-29T11:27:26.981Z,3.27
2023-01-29T11:32:36.620Z,3.28
2023-01-29T11:37:44.672Z,3.27
2023-01-29T11:42:53.421Z,3.28
2023-01-29T11:48:01.635Z,3.28
2023-01-29T11:53:09.182Z,3.26
2023-01-29T11:58:19.054Z,3.27
2023-01-29T12:03:32.459Z,3.28
2023-01-29T12:08:41.181Z,3.28
2023-01-29T12:13:56.159Z,3.29
2023-01-29T12:19:08.301Z,3.29
2023-01-29T12:24:20.991Z,3.30
2023-01-29T12:29:33.696Z,3.29
2023-01-29T12:34:47.262Z,3.29
2023-01-29T12:39:54.622Z,3.30
2023-01-29T12:45:03.761Z,3.29
2023-01-29T12:50:17.021Z,3.29
2023-01-29T12:55:27.003Z,3.29
2023-01-29T13:00:35.827Z,3.28
2023-01-29T13:05:47.552Z,3.28
2023-01-29T13:10:55.791Z,3.28
2023-01-29T13:16:05.605Z,3.27
2023-01-29T13:21:17.083Z,3.26
2023-01-29T13:26:26.892Z,3.27
2023-01-29T13:31:35.521Z,3.27
2023-01-29T13:36:45.496Z,3.26
2023-01-29T13:41:53.712Z,3.26
2023-01-29T13:47:02.781Z,3.26
2023-01-29T13:52:28.605Z,3.26
2023-01-29T13:57:49.420Z,3.27
2023-01-29T14:03:12.150Z,3.29
2023-01-29T14:08:32.743Z,3.29
2023-01-29T14:13:40.133Z,3.28
2023-01-29T14:18:49.761Z,3.26
2023-01-29T14:23:59.313Z,3.25
2023-01-29T14:29:09.384Z,3.25
2023-01-29T14:34:22.986Z,3.25
2023-01-29T14:39:35.863Z,3.25
2023-01-29T14:45:00.633Z,3.24
2023-01-29T14:50:21.231Z,3.24
2023-01-29T14:55:32.033Z,3.24
2023-01-29T15:00:40.642Z,3.24
2023-01-29T15:05:50.032Z,3.23
2023-01-29T15:11:11.912Z,3.22
2023-01-29T15:16:22.581Z,3.23
2023-01-29T15:21:29.953Z,3.22
2023-01-29T15:26:38.080Z,3.21
2023-01-29T15:31:47.718Z,3.21
2023-01-29T15:36:55.584Z,3.20
2023-01-29T15:42:14.361Z,3.21
2023-01-29T15:47:22.794Z,3.20
2023-01-29T15:52:33.798Z,3.20
2023-01-29T15:57:44.294Z,3.20
2023-01-29T16:02:51.756Z,3.20
2023-01-29T16:07:59.482Z,3.19
2023-01-29T16:13:06.601Z,3.18
2023-01-29T16:18:23.902Z,3.17
2023-01-29T16:23:33.773Z,3.19
2023-01-29T16:28:43.605Z,3.18
2023-01-29T16:33:50.792Z,3.18
2023-01-29T16:39:00.361Z,3.17
2023-01-29T16:44:26.324Z,3.18
2023-01-29T16:49:49.646Z,3.19
2023-01-29T16:55:00.170Z,3.21
2023-01-29T17:00:09.021Z,3.18
2023-01-29T17:05:22.263Z,3.17
2023-01-29T17:10:30.445Z,3.17
2023-01-29T17:15:45.440Z,3.17
2023-01-29T17:20:53.366Z,3.17
2023-01-29T17:26:01.381Z,3.16
2023-01-29T17:31:08.946Z,3.15
2023-01-29T17:36:17.100Z,3.15
2023-01-29T17:41:26.655Z,3.16
2023-01-29T17:46:33.996Z,3.15
2023-01-29T17:51:41.202Z,3.14
2023-01-29T17:56:48.381Z,3.13
2023-01-29T18:01:55.612Z,3.13
2023-01-29T18:07:03.017Z,3.13
2023-01-29T18:12:12.972Z,3.14
2023-01-29T18:17:23.047Z,3.14
2023-01-29T18:22:30.266Z,3.14
2023-01-29T18:27:37.171Z,3.14
2023-01-29T18:32:44.641Z,3.14
2023-01-29T18:37:52.860Z,3.13
2023-01-29T18:43:01.260Z,3.11
2023-01-29T18:48:08.909Z,3.14
2023-01-29T18:53:16.087Z,3.14
2023-01-29T18:58:26.559Z,3.13
2023-01-29T19:03:42.252Z,3.12
2023-01-29T19:08:49.477Z,3.12
2023-01-29T19:13:56.632Z,3.12
2023-01-29T19:19:03.939Z,3.12
2023-01-29T19:24:12.464Z,3.12
2023-01-29T19:29:20.520Z,3.12
2023-01-29T19:34:27.923Z,3.11
2023-01-29T19:39:34.977Z,3.11
2023-01-29T19:44:42.053Z,3.10
2023-01-29T19:49:49.046Z,3.11
2023-01-29T19:54:55.765Z,3.12
2023-01-29T20:00:03.103Z,3.11
2023-01-29T20:05:12.468Z,3.11
2023-01-29T20:10:19.973Z,3.11
2023-01-29T20:15:27.794Z,3.11
2023-01-29T20:20:35.129Z,3.10
2023-01-29T20:25:42.773Z,3.11
2023-01-29T20:30:50.126Z,3.11
2023-01-29T20:35:57.546Z,3.11
2023-01-29T20:41:08.164Z,3.10
2023-01-29T20:46:15.393Z,3.11
2023-01-29T20:51:22.434Z,3.12
2023-01-29T20:56:36.501Z,3.10
2023-01-29T21:01:46.778Z,3.12
2023-01-29T21:06:54.104Z,3.11
2023-01-29T21:12:01.398Z,3.10
2023-01-29T21:17:08.530Z,3.09
2023-01-29T21:22:15.682Z,3.08
2023-01-29T21:27:22.793Z,3.09
2023-01-29T21:32:30.111Z,3.08
2023-01-29T21:37:38.922Z,3.10
2023-01-29T21:43:03.390Z,3.10
2023-01-29T21:48:11.370Z,3.09
2023-01-29T21:53:18.401Z,3.09
2023-01-29T21:58:25.402Z,3.10
2023-01-29T22:03:32.873Z,3.09
2023-01-29T22:08:40.031Z,3.10
2023-01-29T22:13:47.553Z,3.10
2023-01-29T22:18:54.801Z,3.09
2023-01-29T22:24:02.039Z,3.08
2023-01-29T22:29:10.009Z,3.09
2023-01-29T22:34:17.134Z,3.08
2023-01-29T22:39:24.273Z,3.08
2023-01-29T22:44:31.563Z,3.08
2023-01-29T22:49:38.653Z,3.08
2023-01-29T22:54:46.611Z,3.08
2023-01-29T22:59:54.100Z,3.09
2023-01-29T23:05:01.342Z,3.07
2023-01-29T23:10:09.482Z,3.07
2023-01-29T23:15:16.882Z,3.08
2023-01-29T23:20:24.525Z,3.08
2023-01-29T23:25:45.642Z,3.07
2023-01-29T23:30:53.269Z,3.09
2023-01-29T23:36:00.961Z,3.06
2023-01-29T23:41:08.312Z,3.07
2023-01-29T23:46:15.714Z,3.06
2023-01-29T23:51:22.801Z,3.05
2023-01-29T23:56:30.259Z,3.06
